Time;durP1;ratioP1;P1;durP2;ratioP2;P2;SDS_P1;SDS_P2;PMS_P1;PMS_P2;Temp;Humidity;BMP_temperature;BMP_pressure;BME280_temperature;BME280_humidity;BME280_pressure;Samples;Min_cycle;Max_cycle;Signal;HPM_P1;HPM_P2
2021/05/29 00:02:12;;;;;;;6.95;3.67;;;;;;;12.00;70.50;102060.97;5102446;28;20121;-65
2021/05/29 00:04:39;;;;;;;8.20;4.03;;;;;;;11.91;70.50;102055.75;5099272;28;20138;-66
2021/05/29 00:07:05;;;;;;;7.35;3.92;;;;;;;11.88;70.83;102053.16;5102426;28;20048;-66
2021/05/29 00:09:31;;;;;;;5.63;3.65;;;;;;;11.81;71.21;102053.19;5107945;28;20043;-66
2021/05/29 00:11:58;;;;;;;6.72;3.72;;;;;;;11.80;71.30;102048.84;5097647;28;20104;-66
2021/05/29 00:14:24;;;;;;;8.05;3.83;;;;;;;11.85;71.18;102056.63;5105113;28;20106;-67
2021/05/29 00:16:51;;;;;;;7.88;3.75;;;;;;;11.89;71.40;102052.28;5099345;28;20047;-66
2021/05/29 00:19:17;;;;;;;9.23;4.28;;;;;;;11.89;71.30;102057.50;5101578;28;20101;-66
2021/05/29 00:21:43;;;;;;;7.35;3.80;;;;;;;11.85;71.38;102059.25;5107085;28;20465;-66
2021/05/29 00:24:09;;;;;;;10.38;4.70;;;;;;;11.76;71.59;102054.91;5111569;28;20051;-66
2021/05/29 00:26:35;;;;;;;7.90;3.83;;;;;;;11.76;71.75;102052.31;5104720;28;20334;-67
2021/05/29 00:29:01;;;;;;;7.03;3.90;;;;;;;11.70;72.04;102052.34;5107185;28;20105;-66
2021/05/29 00:31:27;;;;;;;10.93;4.18;;;;;;;11.67;72.40;102052.34;5101244;28;20040;-66
2021/05/29 00:33:54;;;;;;;7.20;3.50;;;;;;;11.57;72.78;102051.50;5104183;28;20061;-66
2021/05/29 00:36:20;;;;;;;10.55;3.72;;;;;;;11.47;73.32;102050.63;5103859;27;20061;-66
2021/05/29 00:38:48;;;;;;;8.40;4.00;;;;;;;11.51;73.26;102048.91;5100946;27;20071;-66
2021/05/29 00:41:15;;;;;;;7.55;3.92;;;;;;;11.51;73.46;102060.19;5100884;28;20720;-67
2021/05/29 00:43:41;;;;;;;7.15;4.53;;;;;;;11.53;73.43;102049.75;5104988;28;20051;-66
2021/05/29 00:46:08;;;;;;;8.27;3.85;;;;;;;11.53;73.37;102051.53;5106796;28;20055;-66
2021/05/29 00:48:35;;;;;;;6.70;4.13;;;;;;;11.54;73.41;102061.03;5116884;22;20049;-63
2021/05/29 00:51:02;;;;;;;7.82;4.20;;;;;;;11.54;73.48;102051.50;5051584;28;20045;-63
2021/05/29 00:53:29;;;;;;;9.25;4.22;;;;;;;11.54;73.34;102054.09;5069505;28;20055;-62
2021/05/29 00:55:56;;;;;;;10.23;4.63;;;;;;;11.42;73.85;102057.63;5070262;28;20499;-63
2021/05/29 00:58:22;;;;;;;6.85;3.85;;;;;;;11.42;74.05;102052.41;5065768;28;20056;-63
2021/05/29 01:00:48;;;;;;;6.78;3.35;;;;;;;11.38;74.36;102048.06;5070433;28;20049;-62
2021/05/29 01:03:15;;;;;;;6.75;4.00;;;;;;;11.36;74.34;102049.78;5067976;28;20055;-64
2021/05/29 01:05:43;;;;;;;6.22;3.75;;;;;;;11.35;74.42;102055.88;5068379;28;20052;-62
2021/05/29 01:08:10;;;;;;;9.00;4.50;;;;;;;11.33;74.49;102048.06;5080312;28;20044;-63
2021/05/29 01:10:37;;;;;;;6.60;3.92;;;;;;;11.25;74.91;102055.03;5069391;28;20048;-63
2021/05/29 01:13:05;;;;;;;6.95;4.18;;;;;;;11.26;74.90;102053.28;5077945;28;20139;-62
2021/05/29 01:15:35;;;;;;;10.77;4.13;;;;;;;11.19;75.33;102044.59;5063918;28;20128;-63
2021/05/29 01:18:01;;;;;;;8.70;4.20;;;;;;;11.19;75.38;102047.19;5061368;28;20486;-62
2021/05/29 01:20:27;;;;;;;8.27;4.88;;;;;;;11.19;75.50;102041.97;5068054;28;20049;-63
2021/05/29 01:22:55;;;;;;;7.18;4.65;;;;;;;11.11;75.66;102039.41;5070954;28;20095;-62
2021/05/29 01:25:25;;;;;;;7.35;4.90;;;;;;;11.15;76.00;102043.72;5065624;28;20209;-62
2021/05/29 01:27:59;;;;;;;9.00;4.18;;;;;;;11.23;75.55;102045.47;5066278;28;20087;-62
2021/05/29 01:30:25;;;;;;;8.45;4.32;;;;;;;11.25;75.43;102048.94;5069457;28;20049;-63
2021/05/29 01:32:53;;;;;;;8.45;4.50;;;;;;;11.23;75.66;102042.88;5064039;28;20154;-63
2021/05/29 01:35:19;;;;;;;8.30;4.78;;;;;;;11.20;75.64;102042.00;5071538;28;20044;-63
2021/05/29 01:37:46;;;;;;;8.23;4.53;;;;;;;11.11;75.89;102044.63;5073246;28;20051;-62
2021/05/29 01:40:13;;;;;;;8.75;4.50;;;;;;;11.13;75.44;102040.25;5073117;28;20402;-62
2021/05/29 01:42:39;;;;;;;6.63;4.28;;;;;;;11.18;75.40;102043.72;5073172;28;20048;-62
2021/05/29 01:45:08;;;;;;;8.40;4.32;;;;;;;11.08;75.66;102042.00;5062425;28;20648;-63
2021/05/29 01:47:35;;;;;;;7.18;4.32;;;;;;;11.11;75.27;102043.72;5068302;28;20037;-62
2021/05/29 01:50:03;;;;;;;9.13;4.47;;;;;;;11.12;75.73;102035.94;5064065;28;20513;-62
2021/05/29 01:52:49;;;;;;;10.25;4.40;;;;;;;11.12;75.81;102043.75;5071424;28;20052;-63
2021/05/29 01:55:18;;;;;;;8.05;4.35;;;;;;;11.14;75.20;102046.34;5072378;28;20052;-63
2021/05/29 01:57:45;;;;;;;7.45;4.55;;;;;;;11.13;75.45;102055.03;5070713;28;20718;-63
2021/05/29 02:00:12;;;;;;;9.18;4.38;;;;;;;10.88;76.28;102074.09;5059318;28;20044;-62
2021/05/29 02:02:38;;;;;;;8.50;4.80;;;;;;;10.75;77.15;102068.88;5076816;28;20118;-62
2021/05/29 02:05:23;;;;;;;9.75;5.15;;;;;;;10.36;78.84;102068.75;5061384;28;20052;-62
2021/05/29 02:07:50;;;;;;;9.10;5.28;;;;;;;10.24;79.64;102067.84;5077717;28;20418;-62
2021/05/29 02:10:20;;;;;;;8.93;5.30;;;;;;;10.12;80.38;102075.63;5070169;28;20103;-63
2021/05/29 02:12:47;;;;;;;7.97;5.18;;;;;;;10.08;80.38;102074.72;5071864;28;20537;-61
2021/05/29 02:15:16;;;;;;;10.48;6.05;;;;;;;10.00;80.82;102076.41;5066433;28;20517;-63
2021/05/29 02:17:42;;;;;;;8.48;5.45;;;;;;;10.03;80.79;102080.78;5064600;28;20048;-62
2021/05/29 02:20:09;;;;;;;9.65;5.63;;;;;;;10.00;81.31;102072.94;5068175;28;20098;-63
2021/05/29 02:22:36;;;;;;;12.05;5.07;;;;;;;9.93;81.07;102075.50;5070352;28;20078;-63
2021/05/29 02:25:03;;;;;;;10.98;6.00;;;;;;;9.85;81.87;102079.78;5076186;28;20580;-63
2021/05/29 02:27:30;;;;;;;9.02;5.45;;;;;;;9.80;82.01;102081.50;5060672;28;20041;-62
2021/05/29 02:29:56;;;;;;;9.32;5.60;;;;;;;9.87;81.76;102085.88;5066564;28;20060;-63
2021/05/29 02:32:23;;;;;;;9.88;5.57;;;;;;;9.80;81.84;102082.38;5062442;28;20053;-63
2021/05/29 02:34:49;;;;;;;7.38;5.25;;;;;;;9.75;82.72;102078.00;5064304;28;20064;-63
2021/05/29 02:37:15;;;;;;;16.45;6.38;;;;;;;9.77;82.87;102081.50;5064346;28;20052;-63
2021/05/29 02:39:41;;;;;;;12.18;6.15;;;;;;;9.79;82.68;102070.25;5071255;28;20051;-63
2021/05/29 02:42:07;;;;;;;9.48;5.47;;;;;;;9.79;82.70;102069.38;5062519;28;20790;-61
2021/05/29 02:44:34;;;;;;;8.95;5.63;;;;;;;9.80;82.36;102076.31;5063588;28;20048;-62
2021/05/29 02:47:00;;;;;;;10.43;6.03;;;;;;;9.87;82.25;102078.09;5067634;28;20048;-61
2021/05/29 02:49:26;;;;;;;8.73;5.90;;;;;;;9.86;82.43;102080.69;5054776;28;20072;-61
2021/05/29 02:51:52;;;;;;;8.45;5.45;;;;;;;9.94;81.85;102077.25;5063914;28;20068;-62
2021/05/29 02:54:20;;;;;;;13.75;6.30;;;;;;;10.02;81.05;102077.28;5071495;28;20486;-62
2021/05/29 02:56:46;;;;;;;10.10;5.55;;;;;;;10.03;81.21;102083.38;5060455;28;20045;-62
2021/05/29 02:59:12;;;;;;;10.70;5.47;;;;;;;10.03;80.68;102078.19;5064171;28;20060;-62
2021/05/29 03:01:39;;;;;;;11.43;6.40;;;;;;;9.98;81.17;102078.16;5068246;28;20439;-63
2021/05/29 03:04:05;;;;;;;11.27;6.25;;;;;;;9.95;81.44;102083.34;5072228;28;20055;-62
2021/05/29 03:06:31;;;;;;;8.77;5.68;;;;;;;9.99;81.45;102079.00;5062570;28;20132;-62
2021/05/29 03:08:59;;;;;;;9.05;5.70;;;;;;;10.01;81.36;102078.16;5068953;28;20056;-62
2021/05/29 03:11:28;;;;;;;9.75;5.68;;;;;;;10.06;80.67;102078.16;5068199;28;20048;-63
2021/05/29 03:13:53;;;;;;;9.70;5.85;;;;;;;10.06;80.74;102075.56;5069116;28;20051;-62
2021/05/29 03:16:19;;;;;;;12.52;5.82;;;;;;;10.04;81.05;102075.56;5068757;28;20072;-62
2021/05/29 03:18:46;;;;;;;10.73;6.05;;;;;;;10.05;80.94;102079.91;5064894;28;20512;-62
2021/05/29 03:21:12;;;;;;;12.23;5.63;;;;;;;10.04;80.66;102079.88;5072092;28;20051;-62
2021/05/29 03:23:38;;;;;;;14.30;6.18;;;;;;;9.98;80.66;102085.97;5074590;28;20075;-61
2021/05/29 03:26:04;;;;;;;9.27;5.78;;;;;;;9.91;81.16;102081.56;5070698;28;20101;-63
2021/05/29 03:28:30;;;;;;;10.48;5.60;;;;;;;9.84;81.57;102080.66;5062386;28;20072;-62
2021/05/29 03:30:56;;;;;;;13.43;6.38;;;;;;;9.86;81.95;102078.09;5072047;28;20053;-62
2021/05/29 03:33:22;;;;;;;7.85;5.60;;;;;;;9.90;81.83;102079.81;5059082;28;20052;-62
2021/05/29 03:35:48;;;;;;;9.60;6.40;;;;;;;9.86;81.44;102085.88;5061261;28;20044;-62
2021/05/29 03:38:14;;;;;;;14.75;6.75;;;;;;;9.93;81.87;102082.44;5070939;28;20039;-62
2021/05/29 03:40:40;;;;;;;11.32;6.55;;;;;;;10.01;81.75;102083.34;5070999;28;20048;-62
2021/05/29 03:43:06;;;;;;;10.02;6.45;;;;;;;10.02;81.44;102092.03;5069260;28;20055;-62
2021/05/29 03:45:32;;;;;;;10.40;6.28;;;;;;;10.10;81.04;102083.38;5068651;28;20048;-62
2021/05/29 03:47:58;;;;;;;9.02;5.82;;;;;;;10.24;80.57;102082.59;5061426;28;20037;-62
2021/05/29 03:50:26;;;;;;;10.70;5.63;;;;;;;10.37;80.03;102088.69;5077885;28;20399;-62
2021/05/29 03:52:53;;;;;;;12.65;6.28;;;;;;;10.44;79.10;102090.47;5059449;28;20135;-62
2021/05/29 03:55:21;;;;;;;10.55;6.30;;;;;;;10.42;79.31;102087.03;5069547;28;20517;-63
2021/05/29 03:57:47;;;;;;;8.25;5.65;;;;;;;10.50;78.86;102087.91;5074600;28;20040;-60
2021/05/29 04:00:16;;;;;;;8.43;5.50;;;;;;;10.60;78.48;102093.16;5064469;28;20056;-62
2021/05/29 04:02:42;;;;;;;9.90;5.82;;;;;;;10.61;78.33;102094.88;5068408;28;20059;-62
2021/05/29 04:05:09;;;;;;;9.25;5.38;;;;;;;10.66;78.49;102095.75;5061620;28;20045;-62
2021/05/29 04:07:37;;;;;;;8.25;5.70;;;;;;;10.60;77.82;102093.16;5064603;28;20378;-64
2021/05/29 04:10:06;;;;;;;8.02;5.43;;;;;;;10.60;77.96;102094.00;5064442;28;20052;-63
2021/05/29 04:12:32;;;;;;;8.35;4.82;;;;;;;10.66;77.50;102100.94;5074537;28;20052;-64
2021/05/29 04:14:58;;;;;;;11.50;5.13;;;;;;;10.79;76.65;102096.63;5061006;28;20045;-63
2021/05/29 04:17:25;;;;;;;9.50;5.10;;;;;;;10.88;76.65;102097.53;5069272;28;21061;-62
2021/05/29 04:19:51;;;;;;;10.88;5.50;;;;;;;10.98;76.32;102108.81;5065281;28;20049;-62
2021/05/29 04:22:17;;;;;;;13.18;5.72;;;;;;;11.06;75.88;102111.44;5068933;28;20047;-62
2021/05/29 04:24:43;;;;;;;10.13;5.30;;;;;;;11.12;75.43;102107.97;5068997;28;20105;-63
2021/05/29 04:27:10;;;;;;;9.23;4.93;;;;;;;11.20;75.13;102109.72;5060201;28;20071;-62
2021/05/29 04:29:36;;;;;;;10.52;5.07;;;;;;;11.32;74.56;102115.81;5060317;28;20770;-63
2021/05/29 04:32:02;;;;;;;15.30;5.50;;;;;;;11.37;74.61;102121.00;5064464;28;20052;-64
2021/05/29 04:34:29;;;;;;;8.23;5.22;;;;;;;11.54;74.26;102118.38;5067927;28;20074;-61
2021/05/29 04:36:54;;;;;;;9.68;4.95;;;;;;;11.72;73.65;102123.59;5063191;28;20402;-63
2021/05/29 04:39:20;;;;;;;8.63;4.95;;;;;;;11.89;72.97;102133.09;5067496;28;20063;-62
2021/05/29 04:41:46;;;;;;;10.60;5.50;;;;;;;12.05;72.06;102127.00;5069255;28;20052;-62
2021/05/29 04:44:13;;;;;;;7.53;4.53;;;;;;;12.17;71.28;102130.44;5067474;28;20086;-62
2021/05/29 04:46:39;;;;;;;8.88;4.72;;;;;;;12.10;71.45;102142.63;5067756;28;20067;-61
2021/05/29 04:49:05;;;;;;;8.52;5.20;;;;;;;12.01;71.19;102140.94;5064592;28;20506;-63
2021/05/29 04:51:31;;;;;;;7.22;5.05;;;;;;;12.02;71.92;102147.00;5063026;28;20045;-63
2021/05/29 04:53:57;;;;;;;11.30;4.88;;;;;;;12.03;71.62;102143.53;5069731;28;20045;-63
2021/05/29 04:56:23;;;;;;;12.88;5.20;;;;;;;12.06;71.70;102146.13;5066343;28;20052;-62
2021/05/29 04:58:49;;;;;;;6.15;4.25;;;;;;;12.14;71.59;102141.75;5066292;28;20102;-62
2021/05/29 05:01:16;;;;;;;8.23;5.32;;;;;;;12.07;71.69;102151.34;5062127;28;20800;-62
2021/05/29 05:03:42;;;;;;;11.55;4.78;;;;;;;12.08;71.47;102153.06;5066325;28;20055;-63
2021/05/29 05:06:08;;;;;;;9.63;5.03;;;;;;;12.15;71.12;102146.09;5068322;28;20048;-63
2021/05/29 05:08:34;;;;;;;11.35;5.28;;;;;;;12.39;71.10;102150.38;5066783;28;20037;-62
2021/05/29 05:11:00;;;;;;;8.20;4.57;;;;;;;12.56;70.27;102155.53;5064862;28;20402;-62
2021/05/29 05:13:28;;;;;;;7.50;4.57;;;;;;;12.83;69.13;102152.75;5068234;28;20040;-63
2021/05/29 05:15:54;;;;;;;7.28;4.22;;;;;;;12.96;68.48;102149.19;5070875;28;20076;-62
2021/05/29 05:18:22;;;;;;;9.93;4.25;;;;;;;13.12;67.90;102151.72;5073307;28;20122;-63
2021/05/29 05:20:48;;;;;;;7.93;4.65;;;;;;;12.94;67.86;102152.69;5068563;28;20049;-62
2021/05/29 05:23:14;;;;;;;10.90;4.22;;;;;;;12.88;68.08;102162.28;5067899;28;20508;-64
2021/05/29 05:25:40;;;;;;;6.15;3.97;;;;;;;13.03;67.31;102153.50;5070863;28;20044;-63
2021/05/29 05:28:06;;;;;;;7.60;4.38;;;;;;;13.25;66.62;102158.56;5063175;28;20098;-62
2021/05/29 05:30:32;;;;;;;7.53;4.43;;;;;;;13.26;66.98;102160.31;5066037;28;20053;-62
2021/05/29 05:33:02;;;;;;;15.63;4.35;;;;;;;13.41;66.23;102161.09;5060584;28;20118;-62
2021/05/29 05:35:29;;;;;;;6.93;4.25;;;;;;;13.66;65.33;102161.78;5068225;28;20068;-62
2021/05/29 05:37:55;;;;;;;8.77;4.10;;;;;;;13.87;64.29;102165.91;5071781;28;20053;-60
2021/05/29 05:40:21;;;;;;;8.60;3.50;;;;;;;14.08;63.62;102171.81;5063784;28;20059;-62
2021/05/29 05:42:47;;;;;;;7.95;3.90;;;;;;;14.08;62.82;102169.19;5070770;28;20062;-62
2021/05/29 05:45:14;;;;;;;7.63;3.05;;;;;;;14.21;62.99;102175.16;5070946;28;20043;-61
2021/05/29 05:47:40;;;;;;;6.55;3.08;;;;;;;14.38;61.69;102167.97;5062885;28;20048;-62
2021/05/29 05:50:09;;;;;;;6.88;2.92;;;;;;;14.53;61.79;102174.75;5067664;28;20527;-63
2021/05/29 05:52:36;;;;;;;12.15;3.90;;;;;;;14.65;61.55;102175.47;5066906;28;20045;-62
2021/05/29 05:55:03;;;;;;;7.63;3.42;;;;;;;14.77;60.76;102180.59;5065182;28;20055;-62
2021/05/29 05:57:29;;;;;;;8.95;3.92;;;;;;;14.94;60.11;102183.00;5074476;28;20048;-62
2021/05/29 05:59:55;;;;;;;6.82;3.75;;;;;;;14.90;59.84;102176.94;5058829;28;20079;-62
2021/05/29 06:02:21;;;;;;;5.35;2.90;;;;;;;14.81;59.84;102184.91;5061275;28;20088;-63
2021/05/29 06:04:47;;;;;;;6.07;3.28;;;;;;;14.77;59.68;102186.69;5059786;28;20059;-63
2021/05/29 06:07:12;;;;;;;10.73;3.05;;;;;;;14.77;59.59;102186.69;5065350;28;20410;-63
2021/05/29 06:09:39;;;;;;;5.10;3.03;;;;;;;14.65;59.43;102191.19;5064454;28;20059;-63
2021/05/29 06:12:06;;;;;;;6.10;3.40;;;;;;;14.54;59.75;102193.97;5063976;28;20527;-64
2021/05/29 06:20:00;;;;;;;6.40;2.58;;;;;;;14.54;59.17;102204.44;5068492;28;20063;-62
2021/05/29 06:22:26;;;;;;;7.72;2.85;;;;;;;14.71;58.67;102204.25;5063906;28;20053;-60
2021/05/29 06:24:53;;;;;;;5.50;2.95;;;;;;;14.84;58.59;102208.44;5064896;28;20462;-63
2021/05/29 06:27:19;;;;;;;8.65;3.33;;;;;;;14.81;59.41;102208.50;5061326;28;20045;-63
2021/05/29 06:29:45;;;;;;;8.68;3.13;;;;;;;15.14;58.97;102206.28;5061913;28;20099;-62
2021/05/29 06:32:13;;;;;;;6.45;3.22;;;;;;;15.45;57.83;102216.28;5057584;28;20044;-64
2021/05/29 06:34:39;;;;;;;5.85;3.33;;;;;;;15.58;57.09;102208.22;5065461;28;20052;-63
2021/05/29 06:37:05;;;;;;;6.18;3.17;;;;;;;15.58;57.66;102216.94;5067016;28;20520;-63
2021/05/29 06:39:31;;;;;;;6.20;3.60;;;;;;;15.50;57.75;102218.84;5060974;28;20445;-64
2021/05/29 06:41:58;;;;;;;5.53;2.70;;;;;;;15.71;57.65;102215.00;5066670;28;20044;-63
2021/05/29 06:44:24;;;;;;;7.13;2.75;;;;;;;15.34;55.20;102218.22;5062932;28;20056;-62
2021/05/29 06:46:50;;;;;;;5.80;2.80;;;;;;;15.33;55.72;102206.88;5066649;28;20055;-62
2021/05/29 06:49:19;;;;;;;6.95;3.00;;;;;;;15.31;57.96;102207.78;5063357;28;20080;-63
2021/05/29 06:51:49;;;;;;;8.98;4.65;;;;;;;15.47;57.86;102216.28;5060022;28;20040;-63
2021/05/29 06:54:21;;;;;;;7.20;3.13;;;;;;;15.55;57.80;102207.38;5064703;28;20052;-63
2021/05/29 06:59:34;;;;;;;5.45;2.85;;;;;;;15.79;56.27;102215.75;5035050;28;20173;-63
2021/05/29 07:02:00;;;;;;;12.35;2.97;;;;;;;15.89;56.52;102212.97;5065059;28;20040;-64
2021/05/29 07:04:26;;;;;;;7.60;3.67;;;;;;;15.97;56.09;102216.34;5063859;28;20090;-63
2021/05/29 07:06:52;;;;;;;7.13;3.15;;;;;;;15.87;56.87;102217.38;5065944;28;20139;-64
2021/05/29 07:09:19;;;;;;;6.75;3.60;;;;;;;15.78;56.53;102211.38;5067794;28;20055;-62
2021/05/29 07:11:45;;;;;;;6.75;3.30;;;;;;;15.78;56.30;102208.75;5063758;28;20064;-61
2021/05/29 07:14:11;;;;;;;6.15;2.90;;;;;;;15.87;57.52;102215.66;5064545;28;20044;-62
2021/05/29 07:16:38;;;;;;;5.70;2.97;;;;;;;15.92;56.04;102215.56;5069103;28;20578;-62
2021/05/29 07:19:04;;;;;;;8.13;3.15;;;;;;;15.70;55.24;102215.91;5068916;28;20049;-63
2021/05/29 07:21:33;;;;;;;8.27;3.28;;;;;;;15.57;56.39;102217.88;5067280;28;20044;-63
2021/05/29 07:23:59;;;;;;;6.43;2.60;;;;;;;15.60;56.72;102216.94;5066980;28;20136;-63
2021/05/29 07:26:24;;;;;;;7.93;3.03;;;;;;;15.77;57.28;102217.53;5062355;28;20100;-62
2021/05/29 07:28:51;;;;;;;5.43;2.63;;;;;;;15.72;56.21;102219.38;5062457;28;20049;-62
2021/05/29 07:31:25;;;;;;;6.60;3.45;;;;;;;15.73;55.85;102215.81;5079086;22;20161;-68
2021/05/29 07:34:01;;;;;;;6.43;2.42;;;;;;;15.88;56.82;102227.00;5095744;28;20044;-66
2021/05/29 07:36:28;;;;;;;7.22;2.97;;;;;;;15.89;56.52;102226.09;5097602;28;20051;-67
2021/05/29 07:38:55;;;;;;;6.70;2.58;;;;;;;15.70;55.42;102232.50;5102347;28;20040;-67
2021/05/29 07:41:47;;;;;;;6.40;3.08;;;;;;;15.55;56.47;102228.38;5103777;28;20047;-66
2021/05/29 07:44:14;;;;;;;6.88;2.50;;;;;;;15.54;55.47;102229.25;5102349;28;20562;-66
2021/05/29 07:46:46;;;;;;;5.82;2.70;;;;;;;15.69;55.30;102235.16;5103161;28;20489;-67
2021/05/29 07:49:15;;;;;;;5.57;2.20;;;;;;;15.82;55.81;102225.31;5103907;28;20067;-66
2021/05/29 07:51:41;;;;;;;5.90;1.95;;;;;;;15.76;53.87;102235.91;5098691;28;20047;-66
2021/05/29 07:54:10;;;;;;;5.72;2.13;;;;;;;15.65;54.88;102236.09;5095090;28;20048;-66
2021/05/29 07:56:41;;;;;;;3.63;1.85;;;;;;;15.68;54.57;102229.03;5104831;28;20055;-66
2021/05/29 07:59:10;;;;;;;4.68;2.00;;;;;;;15.93;56.16;102230.38;5102244;28;20463;-67
2021/05/29 08:01:54;;;;;;;5.80;2.00;;;;;;;15.76;52.79;102236.78;5104302;28;20048;-67
2021/05/29 08:04:31;;;;;;;4.97;2.50;;;;;;;15.73;54.79;102251.69;5105739;28;20043;-66
2021/05/29 08:06:59;;;;;;;4.88;2.30;;;;;;;15.77;56.14;102243.75;5099781;28;20048;-67
2021/05/29 08:09:25;;;;;;;6.30;3.50;;;;;;;15.91;56.00;102243.53;5097595;28;20047;-68
2021/05/29 08:11:52;;;;;;;7.38;2.85;;;;;;;15.94;55.25;102246.13;5097100;28;20044;-68
2021/05/29 08:14:18;;;;;;;7.55;3.25;;;;;;;15.82;56.04;102247.16;5099448;28;20052;-66
2021/05/29 08:16:55;;;;;;;7.60;3.60;;;;;;;15.85;56.28;102244.50;5103719;28;20169;-66
2021/05/29 08:19:21;;;;;;;7.00;3.25;;;;;;;15.87;55.74;102249.75;5102980;28;20050;-66
2021/05/29 08:21:50;;;;;;;7.50;3.70;;;;;;;15.73;56.99;102247.31;5103740;28;20040;-66
2021/05/29 08:24:16;;;;;;;8.13;3.83;;;;;;;15.78;56.90;102244.59;5106718;28;20043;-66
2021/05/29 08:26:43;;;;;;;11.73;3.70;;;;;;;15.63;57.14;102251.84;5106158;28;20052;-66
2021/05/29 08:29:11;;;;;;;8.70;3.33;;;;;;;15.68;56.98;102250.00;5102349;28;20487;-67
2021/05/29 08:31:37;;;;;;;6.93;3.80;;;;;;;15.68;57.89;102250.00;5102563;28;20043;-66
2021/05/29 08:34:04;;;;;;;7.80;3.80;;;;;;;15.41;58.03;102245.19;5104609;28;20048;-66
2021/05/29 08:36:30;;;;;;;8.55;4.20;;;;;;;15.56;58.33;102258.09;5106499;28;20134;-67
2021/05/29 08:38:57;;;;;;;6.88;4.50;;;;;;;15.53;57.45;102256.38;5106263;28;20048;-66
2021/05/29 08:41:24;;;;;;;9.73;4.72;;;;;;;15.67;58.02;102264.00;5101820;28;20044;-66
2021/05/29 08:43:50;;;;;;;7.35;4.70;;;;;;;15.77;57.67;102261.25;5109904;28;20047;-66
2021/05/29 08:46:16;;;;;;;10.50;4.72;;;;;;;15.85;56.87;102260.25;5105741;28;20051;-66
2021/05/29 08:48:42;;;;;;;7.38;4.85;;;;;;;16.01;57.31;102258.25;5105189;28;20134;-66
2021/05/29 08:51:16;;;;;;;9.25;4.65;;;;;;;16.12;56.72;102255.41;5105785;28;20052;-66
2021/05/29 08:53:43;;;;;;;6.67;4.30;;;;;;;15.98;55.61;102258.28;5105515;28;20412;-66
2021/05/29 08:56:11;;;;;;;7.57;3.95;;;;;;;15.96;55.03;102259.22;5107901;28;20501;-66
2021/05/29 08:58:37;;;;;;;8.02;4.22;;;;;;;16.04;55.78;102252.06;5110137;28;20056;-66
2021/05/29 09:01:04;;;;;;;8.98;5.00;;;;;;;15.93;56.14;102256.63;5101949;28;20039;-67
2021/05/29 09:03:46;;;;;;;11.88;5.15;;;;;;;15.94;56.63;102256.63;5093357;27;20054;-66
2021/05/29 09:06:13;;;;;;;7.32;4.50;;;;;;;15.85;55.20;102262.03;5096168;28;20044;-67
2021/05/29 09:08:53;;;;;;;7.80;3.60;;;;;;;15.74;52.45;102258.69;5091703;28;20054;-66
2021/05/29 09:11:45;;;;;;;7.68;3.92;;;;;;;15.85;55.29;102262.88;5097622;28;20043;-66
2021/05/29 09:14:31;;;;;;;7.88;3.67;;;;;;;16.07;53.56;102265.13;5097832;28;20410;-66
2021/05/29 09:17:10;;;;;;;5.78;3.30;;;;;;;16.44;53.96;102267.06;5103632;28;20082;-66
2021/05/29 09:19:59;;;;;;;8.52;4.35;;;;;;;16.42;54.69;102262.75;5105269;28;20071;-67
2021/05/29 09:22:28;;;;;;;9.00;4.72;;;;;;;16.60;55.00;102274.69;5102089;28;20086;-67
2021/05/29 09:25:04;;;;;;;9.20;4.95;;;;;;;16.61;53.99;102273.78;5104396;28;20107;-66
2021/05/29 09:27:33;;;;;;;9.15;4.85;;;;;;;16.42;54.82;102274.09;5105694;28;20048;-66
2021/05/29 09:29:59;;;;;;;10.98;5.68;;;;;;;16.43;55.01;102281.09;5104229;28;20051;-66
2021/05/29 09:32:25;;;;;;;9.02;5.47;;;;;;;16.54;54.31;102277.41;5106144;28;20058;-67
2021/05/29 09:34:52;;;;;;;10.48;5.70;;;;;;;16.51;54.61;102274.84;5106588;28;20122;-67
2021/05/29 09:37:22;;;;;;;12.10;5.80;;;;;;;16.50;54.89;102281.00;5102450;28;20585;-66
2021/05/29 09:39:50;;;;;;;10.30;5.75;;;;;;;16.50;55.25;102275.75;5106258;28;20056;-66
2021/05/29 09:42:17;;;;;;;7.72;4.75;;;;;;;16.46;55.37;102273.16;5104499;28;20052;-67
2021/05/29 09:44:44;;;;;;;11.25;5.63;;;;;;;16.33;56.28;102271.66;5104820;28;20077;-67
2021/05/29 09:47:14;;;;;;;8.80;5.25;;;;;;;16.45;56.40;102276.69;5103715;28;20473;-67
2021/05/29 09:49:50;;;;;;;10.35;5.57;;;;;;;16.37;54.97;102275.97;5108357;28;20059;-66
2021/05/29 09:52:34;;;;;;;7.57;5.40;;;;;;;16.55;54.06;102279.13;5107152;28;20044;-67
2021/05/29 09:55:03;;;;;;;7.32;5.22;;;;;;;16.81;53.82;102277.75;5103764;28;20222;-67
2021/05/29 09:57:29;;;;;;;8.95;4.43;;;;;;;16.81;52.96;102283.03;5104400;28;20051;-67
2021/05/29 09:59:58;;;;;;;10.48;5.30;;;;;;;16.78;53.32;102287.44;5099252;28;20047;-67
2021/05/29 10:02:24;;;;;;;12.18;6.65;;;;;;;16.71;54.31;102290.22;5097808;28;20572;-66
2021/05/29 10:04:54;;;;;;;12.88;6.47;;;;;;;16.56;55.49;102291.38;5099840;28;20048;-66
2021/05/29 10:07:21;;;;;;;10.13;6.57;;;;;;;16.52;55.70;102281.84;5098130;28;20147;-67
2021/05/29 10:09:49;;;;;;;10.48;6.32;;;;;;;16.44;53.68;102287.22;5101310;28;20055;-66
2021/05/29 10:12:15;;;;;;;11.85;6.90;;;;;;;16.70;53.62;102278.84;5102951;28;20412;-66
2021/05/29 10:14:42;;;;;;;11.32;6.75;;;;;;;16.72;54.82;102286.69;5093355;28;20044;-66
2021/05/29 10:17:10;;;;;;;11.50;7.68;;;;;;;16.96;54.35;102282.72;5096973;28;20055;-66
2021/05/29 10:19:38;;;;;;;12.00;7.43;;;;;;;17.20;53.93;102286.56;5106376;28;20056;-65
2021/05/29 10:22:06;;;;;;;14.65;8.50;;;;;;;17.09;54.19;102297.34;5106416;28;20051;-65
2021/05/29 10:24:32;;;;;;;12.45;8.50;;;;;;;16.89;55.32;102310.00;5101927;28;20055;-66
2021/05/29 10:27:02;;;;;;;12.75;7.65;;;;;;;16.60;56.38;102290.44;5096499;28;20052;-66
2021/05/29 10:29:28;;;;;;;13.13;9.48;;;;;;;16.54;56.39;102290.53;5090433;27;20105;-66
2021/05/29 10:32:10;;;;;;;14.05;7.93;;;;;;;16.44;56.38;102298.59;5092216;28;20043;-63
2021/05/29 10:35:00;;;;;;;13.30;8.13;;;;;;;16.35;56.85;102292.66;5097826;28;20052;-66
2021/05/29 10:37:37;;;;;;;14.63;8.40;;;;;;;16.34;55.86;102286.53;5097315;27;20481;-67
2021/05/29 10:40:22;;;;;;;13.43;8.18;;;;;;;16.50;57.54;102289.72;5099539;28;20052;-63
2021/05/29 10:43:06;;;;;;;11.95;7.25;;;;;;;16.59;55.65;102292.19;5094957;28;20048;-64
2021/05/29 10:45:32;;;;;;;11.50;6.85;;;;;;;16.88;54.59;102289.88;5092366;28;20055;-66
2021/05/29 10:48:05;;;;;;;12.07;6.28;;;;;;;16.73;54.63;102286.66;5098464;28;20101;-65
2021/05/29 10:51:10;;;;;;;14.18;7.65;;;;;;;16.49;54.95;102290.63;5096514;28;20051;-66
2021/05/29 10:53:47;;;;;;;11.90;7.55;;;;;;;16.27;54.66;102295.41;5095462;28;20075;-65
2021/05/29 10:56:33;;;;;;;11.73;6.70;;;;;;;16.31;55.65;102286.59;5092709;28;20089;-65
2021/05/29 10:59:13;;;;;;;9.50;6.65;;;;;;;16.34;54.98;102291.78;5097999;28;20087;-65
2021/05/29 11:02:00;;;;;;;11.60;6.22;;;;;;;16.59;54.39;102288.69;5087034;28;20054;-65
2021/05/29 11:04:27;;;;;;;12.00;7.10;;;;;;;16.68;54.02;102288.50;5095517;28;20070;-64
2021/05/29 11:06:55;;;;;;;10.48;6.20;;;;;;;16.94;54.45;102290.66;5099436;28;20088;-66
2021/05/29 11:09:54;;;;;;;9.77;6.38;;;;;;;16.60;53.54;102295.69;5097885;28;20043;-66
2021/05/29 11:12:20;;;;;;;9.50;6.38;;;;;;;16.32;53.88;102285.69;5098384;28;20485;-66
2021/05/29 11:14:55;;;;;;;9.77;5.65;;;;;;;16.65;54.12;102285.09;5101117;28;20497;-66
2021/05/29 11:17:23;;;;;;;10.27;6.25;;;;;;;17.01;52.41;102280.88;5104220;28;20055;-66
2021/05/29 11:20:09;;;;;;;10.55;6.75;;;;;;;17.06;53.58;102288.66;5097790;28;20101;-66
2021/05/29 11:22:44;;;;;;;8.93;6.40;;;;;;;17.12;53.87;102290.28;5099771;28;20519;-66
2021/05/29 11:25:13;;;;;;;12.75;7.18;;;;;;;16.90;52.99;102290.72;5093662;28;20447;-66
2021/05/29 11:27:40;;;;;;;9.70;5.95;;;;;;;16.91;52.52;102281.94;5086229;28;20151;-65
2021/05/29 11:30:08;;;;;;;10.02;6.47;;;;;;;17.18;52.68;102282.25;5087891;28;20048;-65
2021/05/29 11:32:54;;;;;;;16.38;7.32;;;;;;;17.29;53.09;102287.25;5089002;28;20164;-65
2021/05/29 11:35:27;;;;;;;12.98;6.90;;;;;;;16.67;53.71;102285.94;5095196;28;20126;-65
2021/05/29 11:37:57;;;;;;;9.88;6.72;;;;;;;16.48;54.80;102283.63;5091928;28;20043;-64
2021/05/29 11:40:40;;;;;;;9.27;6.03;;;;;;;16.78;53.99;102287.44;5093782;28;20470;-65